Time;durP1;ratioP1;P1;durP2;ratioP2;P2;SDS_P1;SDS_P2;PMS_P1;PMS_P2;Temp;Humidity;BMP_temperature;BMP_pressure;BME280_temperature;BME280_humidity;BME280_pressure;Samples;Min_cycle;Max_cycle;Signal;HPM_P1;HPM_P2
2022/08/25 00:02:06;;;;;;;7.90;2.80;;;;;;;21.90;72.37;100739.08;104779;1286;25517;-75
2022/08/25 00:04:34;;;;;;;15.30;2.60;;;;;;;21.83;72.61;100734.27;104688;1286;22599;-74
2022/08/25 00:07:04;;;;;;;9.50;2.70;;;;;;;21.77;72.95;100734.02;105184;1285;24524;-73
2022/08/25 00:09:32;;;;;;;8.40;2.70;;;;;;;21.82;72.99;100729.09;105026;1285;25563;-74
2022/08/25 00:11:59;;;;;;;11.20;2.90;;;;;;;21.92;73.00;100730.60;104866;1285;22563;-76
2022/08/25 00:14:34;;;;;;;6.30;2.40;;;;;;;22.00;73.11;100724.62;105287;1285;22755;-78
2022/08/25 00:17:04;;;;;;;9.10;2.60;;;;;;;22.06;72.81;100717.85;105310;1285;22645;-73
2022/08/25 00:19:33;;;;;;;8.90;2.20;;;;;;;22.09;72.88;100716.29;105033;1286;22615;-78
2022/08/25 00:22:00;;;;;;;10.50;3.00;;;;;;;22.09;72.91;100711.76;104662;1290;25406;-80
2022/08/25 00:24:27;;;;;;;5.20;2.10;;;;;;;22.14;72.92;100709.89;104735;1291;25372;-76
2022/08/25 00:26:56;;;;;;;8.40;3.30;;;;;;;22.19;72.77;100709.81;104676;1291;22789;-79
2022/08/25 00:29:27;;;;;;;7.60;3.00;;;;;;;22.26;72.68;100709.61;104800;1290;22680;-78
2022/08/25 00:31:55;;;;;;;11.60;2.90;;;;;;;22.30;72.61;100710.11;104889;1290;22659;-75
2022/08/25 00:34:26;;;;;;;9.10;2.60;;;;;;;22.29;72.52;100706.97;106708;1290;22616;-74
2022/08/25 00:36:52;;;;;;;9.90;3.20;;;;;;;22.30;72.54;100709.41;107444;1290;22634;-73
2022/08/25 00:39:21;;;;;;;8.80;3.20;;;;;;;22.28;72.47;100707.03;105358;1287;25280;-74
2022/08/25 00:41:51;;;;;;;8.50;2.90;;;;;;;22.31;72.54;100704.17;107648;1285;24028;-76
2022/08/25 00:44:18;;;;;;;8.20;2.60;;;;;;;22.35;72.71;100702.71;107573;1285;22506;-76
2022/08/25 00:46:50;;;;;;;9.30;3.10;;;;;;;22.38;72.41;100700.36;105930;1285;24297;-75
2022/08/25 00:49:26;;;;;;;11.70;3.00;;;;;;;22.40;72.51;100701.70;105337;1287;24379;-77
2022/08/25 00:52:17;;;;;;;6.50;2.80;;;;;;;22.42;72.33;100700.73;105309;1285;22571;-75
2022/08/25 00:54:54;;;;;;;6.30;2.70;;;;;;;22.42;72.65;100703.73;105131;1285;23223;-76
2022/08/25 00:57:32;;;;;;;9.80;2.80;;;;;;;22.43;72.39;100702.82;105290;1285;22649;-75
2022/08/25 01:00:11;;;;;;;10.20;2.80;;;;;;;22.42;72.81;100698.39;104989;1285;23844;-75
2022/08/25 01:02:38;;;;;;;9.10;2.90;;;;;;;22.44;72.78;100696.84;104830;1288;25398;-74
2022/08/25 01:05:05;;;;;;;12.50;2.80;;;;;;;22.44;72.68;100689.30;105358;1285;25401;-76
2022/08/25 01:07:32;;;;;;;11.90;3.70;;;;;;;22.43;72.73;100689.02;104965;1286;24301;-75
2022/08/25 01:09:59;;;;;;;16.20;3.60;;;;;;;22.43;72.83;100692.23;105439;1286;22583;-77
2022/08/25 01:12:25;;;;;;;9.90;2.90;;;;;;;22.41;72.91;100690.71;104927;1287;22570;-76
2022/08/25 01:14:54;;;;;;;7.40;2.80;;;;;;;22.43;72.96;100696.19;104871;1287;22584;-75
2022/08/25 01:17:21;;;;;;;8.00;3.20;;;;;;;22.45;72.96;100695.38;105072;1285;25338;-72
2022/08/25 01:19:47;;;;;;;7.20;3.20;;;;;;;22.44;72.96;100691.10;105233;1286;25395;-76
2022/08/25 01:22:13;;;;;;;11.10;3.10;;;;;;;22.43;72.95;100691.88;105308;1285;25285;-76
2022/08/25 01:24:49;;;;;;;9.30;3.50;;;;;;;22.44;72.97;100691.63;105274;1285;22587;-72
2022/08/25 01:27:15;;;;;;;11.40;4.20;;;;;;;22.45;73.14;100694.13;105122;1286;25466;-75
2022/08/25 01:29:41;;;;;;;10.20;3.50;;;;;;;22.42;73.26;100693.71;105245;1286;25282;-76
2022/08/25 01:32:10;;;;;;;10.90;3.20;;;;;;;22.42;73.37;100688.14;105201;1285;23260;-76
2022/08/25 01:34:40;;;;;;;9.10;2.80;;;;;;;22.44;73.44;100691.09;105206;1285;22579;-78
2022/08/25 01:37:08;;;;;;;10.80;3.30;;;;;;;22.44;73.47;100688.39;105261;1285;25432;-75
2022/08/25 01:39:39;;;;;;;6.50;3.30;;;;;;;22.43;73.55;100690.27;104870;1286;22570;-77
2022/08/25 01:42:05;;;;;;;7.40;2.80;;;;;;;22.45;73.62;100691.75;104966;1285;22650;-76
2022/08/25 01:44:35;;;;;;;11.00;3.50;;;;;;;22.47;73.53;100687.88;105022;1285;22640;-76
2022/08/25 01:47:03;;;;;;;8.30;3.10;;;;;;;22.47;73.47;100689.65;104926;1287;23670;-75
2022/08/25 01:49:29;;;;;;;9.40;3.60;;;;;;;22.49;73.54;100691.55;104581;1287;25530;-77
2022/08/25 01:52:01;;;;;;;10.00;3.20;;;;;;;22.50;73.44;100693.78;104895;1287;25354;-76
2022/08/25 01:54:27;;;;;;;11.90;3.70;;;;;;;22.53;73.74;100691.31;105026;1285;25477;-77
2022/08/25 01:56:53;;;;;;;11.00;4.50;;;;;;;22.53;73.70;100690.63;105047;1285;24257;-76
2022/08/25 01:59:20;;;;;;;9.70;3.20;;;;;;;22.53;73.73;100690.23;105168;1285;23041;-76
2022/08/25 02:01:50;;;;;;;7.90;3.30;;;;;;;22.55;73.66;100690.89;104841;1286;23085;-76
2022/08/25 02:04:25;;;;;;;9.20;3.40;;;;;;;22.57;73.74;100688.59;105184;1285;25352;-78
2022/08/25 02:06:51;;;;;;;11.70;3.30;;;;;;;22.57;73.87;100688.41;105131;1288;23037;-76
2022/08/25 02:09:17;;;;;;;10.20;3.80;;;;;;;22.56;73.84;100686.50;104921;1287;24420;-76
2022/08/25 02:11:46;;;;;;;12.00;3.90;;;;;;;22.56;73.93;100687.03;104936;1287;26724;-75
2022/08/25 02:14:14;;;;;;;10.80;3.30;;;;;;;22.58;74.05;100682.64;104942;1287;22808;-75
2022/08/25 02:16:43;;;;;;;6.30;3.20;;;;;;;22.60;74.14;100681.30;104810;1287;23109;-75
2022/08/25 02:19:11;;;;;;;13.10;4.40;;;;;;;22.60;74.20;100674.63;104806;1288;25345;-74
2022/08/25 02:21:38;;;;;;;15.20;4.10;;;;;;;22.59;74.15;100673.23;104965;1286;22702;-79
2022/08/25 02:24:05;;;;;;;14.60;4.40;;;;;;;22.60;74.47;100671.98;104992;1287;23450;-71
2022/08/25 02:26:32;;;;;;;15.60;4.10;;;;;;;22.59;74.25;100669.64;105129;1286;23236;-76
2022/08/25 02:29:00;;;;;;;14.80;4.20;;;;;;;22.59;74.43;100672.89;105136;1285;25385;-74
2022/08/25 02:31:27;;;;;;;9.50;3.70;;;;;;;22.61;74.61;100670.45;104971;1285;25558;-75
2022/08/25 02:33:54;;;;;;;13.20;4.80;;;;;;;22.60;74.32;100670.50;104775;1288;22573;-74
2022/08/25 02:36:20;;;;;;;10.50;3.70;;;;;;;22.58;74.71;100670.43;104943;1289;22742;-71
2022/08/25 02:38:47;;;;;;;9.60;3.80;;;;;;;22.59;74.59;100669.85;104413;1290;22806;-73
2022/08/25 02:41:17;;;;;;;11.30;4.10;;;;;;;22.59;74.59;100670.19;104287;1294;25328;-74
2022/08/25 02:43:44;;;;;;;13.10;4.30;;;;;;;22.60;74.70;100668.52;104141;1293;23955;-72
2022/08/25 02:46:11;;;;;;;13.70;4.40;;;;;;;22.62;74.59;100666.66;104256;1293;22704;-73
2022/08/25 02:48:39;;;;;;;13.60;4.20;;;;;;;22.62;74.50;100669.34;104258;1291;23986;-74
2022/08/25 02:51:07;;;;;;;12.40;3.50;;;;;;;22.61;74.57;100666.88;104295;1294;22592;-72
2022/08/25 02:53:35;;;;;;;13.70;4.80;;;;;;;22.62;74.67;100666.27;104323;1294;24307;-74
2022/08/25 02:56:01;;;;;;;10.40;3.90;;;;;;;22.66;74.62;100666.64;104256;1291;22605;-73
2022/08/25 02:58:27;;;;;;;18.60;4.30;;;;;;;22.66;74.54;100667.02;104654;1291;25362;-71
2022/08/25 03:00:55;;;;;;;12.00;4.10;;;;;;;22.66;74.64;100672.16;104966;1288;25342;-73
2022/08/25 03:03:22;;;;;;;12.30;4.00;;;;;;;22.62;74.68;100664.84;105053;1287;22570;-73
2022/08/25 03:05:48;;;;;;;14.80;4.80;;;;;;;22.65;74.58;100670.79;105103;1287;25341;-73
2022/08/25 03:08:14;;;;;;;12.10;4.30;;;;;;;22.65;74.42;100671.70;104767;1287;24321;-73
2022/08/25 03:10:41;;;;;;;15.40;4.50;;;;;;;22.64;74.47;100671.55;104697;1287;23942;-73
2022/08/25 03:13:07;;;;;;;12.00;4.30;;;;;;;22.63;74.75;100673.42;105057;1287;24391;-74
2022/08/25 03:15:36;;;;;;;14.00;4.30;;;;;;;22.64;74.70;100677.64;105000;1287;22710;-74
2022/08/25 03:18:04;;;;;;;14.00;4.60;;;;;;;22.67;74.71;100682.02;104981;1286;25432;-73
2022/08/25 03:20:35;;;;;;;15.60;4.40;;;;;;;22.66;74.84;100677.22;104880;1287;23277;-73
2022/08/25 03:23:02;;;;;;;15.80;4.30;;;;;;;22.64;74.79;100673.89;104996;1287;24349;-73
2022/08/25 03:28:13;;;;;;;13.90;5.00;;;;;;;22.67;74.85;100671.77;105054;1287;22634;-74
2022/08/25 03:30:41;;;;;;;16.20;4.50;;;;;;;22.68;74.59;100669.39;104564;1289;22560;-74
2022/08/25 03:33:07;;;;;;;13.20;4.50;;;;;;;22.70;74.56;100669.08;104601;1287;24446;-72
2022/08/25 03:35:33;;;;;;;18.90;5.20;;;;;;;22.69;74.37;100668.77;104325;1290;25400;-71
2022/08/25 03:38:00;;;;;;;13.50;4.70;;;;;;;22.65;74.53;100667.55;104290;1291;22640;-73
2022/08/25 03:40:27;;;;;;;17.10;4.80;;;;;;;22.66;74.69;100671.99;104432;1290;22582;-73
2022/08/25 03:42:55;;;;;;;13.80;4.70;;;;;;;22.68;74.60;100671.55;104472;1290;22757;-72
2022/08/25 03:45:23;;;;;;;13.70;4.40;;;;;;;22.68;74.44;100672.60;104488;1290;24324;-73
2022/08/25 03:47:51;;;;;;;17.00;5.10;;;;;;;22.71;74.68;100671.88;104489;1289;24247;-75
2022/08/25 03:50:19;;;;;;;12.20;4.60;;;;;;;22.73;74.57;100672.84;104421;1289;23209;-74
2022/08/25 03:52:53;;;;;;;16.00;4.30;;;;;;;22.72;74.41;100668.93;104547;1290;23084;-73
2022/08/25 03:55:22;;;;;;;16.40;5.80;;;;;;;22.74;74.44;100672.27;104574;1290;24513;-75
2022/08/25 03:57:49;;;;;;;11.70;4.40;;;;;;;22.72;74.45;100668.27;104665;1290;22572;-75
2022/08/25 04:00:16;;;;;;;19.10;5.30;;;;;;;22.72;74.37;100672.55;104658;1285;23938;-73
2022/08/25 04:02:42;;;;;;;16.00;4.90;;;;;;;22.71;74.14;100669.58;104997;1287;22644;-75
2022/08/25 04:05:08;;;;;;;18.00;5.20;;;;;;;22.69;74.25;100667.89;105074;1286;22553;-76
2022/08/25 04:07:35;;;;;;;14.70;5.20;;;;;;;22.67;74.19;100667.95;104886;1287;22582;-74
2022/08/25 04:10:01;;;;;;;14.80;4.80;;;;;;;22.67;74.19;100669.09;104892;1288;23354;-74
2022/08/25 04:12:27;;;;;;;13.50;4.60;;;;;;;22.67;74.38;100668.71;104716;1287;22551;-71
2022/08/25 04:14:54;;;;;;;16.40;4.70;;;;;;;22.68;74.22;100666.84;104876;1287;25394;-72
2022/08/25 04:17:21;;;;;;;13.90;5.50;;;;;;;22.66;74.34;100668.94;105082;1285;22579;-73
2022/08/25 04:19:47;;;;;;;16.30;5.70;;;;;;;22.66;74.24;100666.95;104930;1287;26685;-73
2022/08/25 04:22:13;;;;;;;13.90;5.40;;;;;;;22.66;74.28;100666.26;105189;1284;23067;-78
2022/08/25 04:24:39;;;;;;;13.30;4.70;;;;;;;22.63;74.26;100664.98;105205;1286;25289;-79
2022/08/25 04:27:06;;;;;;;9.60;4.10;;;;;;;22.60;74.37;100660.08;104732;1288;22692;-77
2022/08/25 04:29:32;;;;;;;16.70;6.00;;;;;;;22.64;74.21;100660.64;104924;1286;22751;-77
2022/08/25 04:31:59;;;;;;;12.60;4.80;;;;;;;22.65;74.23;100658.58;104795;1287;24122;-77
2022/08/25 04:34:26;;;;;;;18.90;5.90;;;;;;;22.67;74.42;100662.29;104710;1288;22578;-76
2022/08/25 04:37:02;;;;;;;18.10;4.90;;;;;;;22.69;74.37;100660.17;104932;1287;25298;-78
2022/08/25 04:39:29;;;;;;;17.20;5.30;;;;;;;22.69;74.25;100660.17;104979;1287;25272;-77
2022/08/25 04:41:56;;;;;;;22.10;5.80;;;;;;;22.72;74.14;100657.64;105095;1286;23052;-77
2022/08/25 04:44:22;;;;;;;18.40;5.60;;;;;;;22.75;74.05;100661.42;104877;1287;22554;-78
2022/08/25 04:46:48;;;;;;;17.30;6.10;;;;;;;22.78;74.26;100662.70;104926;1287;22583;-80
2022/08/25 04:49:15;;;;;;;24.10;5.10;;;;;;;22.80;74.08;100661.02;104784;1287;25339;-79
2022/08/25 04:55:26;;;;;;;21.00;6.50;;;;;;;22.88;73.90;100656.23;104960;1287;22570;-81
2022/08/25 04:57:52;;;;;;;20.70;5.50;;;;;;;22.89;73.74;100657.27;104710;1288;23073;-81
2022/08/25 05:00:18;;;;;;;23.00;6.00;;;;;;;22.92;73.81;100652.96;104872;1286;24284;-80
2022/08/25 05:02:44;;;;;;;22.30;6.00;;;;;;;22.94;73.67;100653.00;105010;1286;24252;-81
2022/08/25 05:05:10;;;;;;;16.70;5.90;;;;;;;22.94;73.47;100647.79;104770;1287;26627;-79
2022/08/25 05:07:36;;;;;;;20.50;6.30;;;;;;;22.96;73.71;100649.67;104703;1288;22797;-81
2022/08/25 05:10:03;;;;;;;23.50;6.60;;;;;;;22.99;73.48;100651.85;104716;1290;24274;-81
2022/08/25 05:12:30;;;;;;;17.90;5.80;;;;;;;23.01;73.34;100651.52;104879;1287;25284;-79
2022/08/25 05:15:48;;;;;;;28.70;6.90;;;;;;;23.05;73.32;100649.91;104898;1286;25289;-79
2022/08/25 05:17:44;;;;;;;16.40;6.20;;;;;;;23.10;73.18;100651.57;104927;1286;22578;-79
2022/08/25 05:20:10;;;;;;;21.10;7.10;;;;;;;23.13;73.22;100654.30;105132;1285;25760;-78
2022/08/25 05:22:36;;;;;;;23.10;6.70;;;;;;;23.15;73.31;100654.16;105156;1285;23951;-80
2022/08/25 05:25:03;;;;;;;27.10;6.80;;;;;;;23.19;73.12;100653.75;106169;1285;25294;-79
2022/08/25 05:27:29;;;;;;;18.70;6.40;;;;;;;23.23;73.12;100653.50;106761;1285;22556;-79
2022/08/25 05:29:55;;;;;;;19.80;6.80;;;;;;;23.24;72.80;100649.18;105795;1286;22560;-79
2022/08/25 05:32:22;;;;;;;24.90;6.60;;;;;;;23.30;73.01;100651.36;105195;1286;26557;-77
2022/08/25 05:34:48;;;;;;;22.50;6.50;;;;;;;23.32;72.57;100646.16;103967;1294;23771;-78
2022/08/25 05:37:14;;;;;;;26.40;6.90;;;;;;;23.33;72.42;100645.77;104616;1291;26906;-80
2022/08/25 05:39:40;;;;;;;23.40;6.60;;;;;;;23.35;72.55;100645.60;104227;1291;22796;-79
2022/08/25 05:42:06;;;;;;;19.10;6.50;;;;;;;23.37;72.59;100643.00;104342;1291;22589;-81
2022/08/25 05:44:32;;;;;;;15.30;6.50;;;;;;;23.39;72.47;100644.16;104413;1293;22665;-79
2022/08/25 05:46:58;;;;;;;21.40;6.80;;;;;;;23.43;72.36;100647.18;104231;1294;22659;-80
2022/08/25 05:49:25;;;;;;;23.40;7.00;;;;;;;23.47;72.02;100647.31;104409;1291;24361;-77
2022/08/25 05:51:51;;;;;;;29.90;7.30;;;;;;;23.49;72.09;100648.23;104353;1294;22662;-76
2022/08/25 05:54:17;;;;;;;25.60;6.40;;;;;;;23.53;72.10;100651.28;105072;1285;25652;-82
2022/08/25 05:56:44;;;;;;;22.80;7.30;;;;;;;23.54;72.24;100651.77;105322;1285;24938;-78
2022/08/25 05:59:10;;;;;;;35.60;7.50;;;;;;;23.57;71.92;100652.30;105088;1287;23032;-78
2022/08/25 06:04:22;;;;;;;26.60;7.30;;;;;;;23.60;71.88;100654.08;105008;1286;24274;-80
2022/08/25 06:06:52;;;;;;;17.80;6.30;;;;;;;23.61;71.49;100652.05;105000;1286;22740;-80
2022/08/25 06:09:18;;;;;;;26.40;7.10;;;;;;;23.61;71.31;100648.44;104839;1287;23715;-79
2022/08/25 06:11:46;;;;;;;24.40;7.60;;;;;;;23.61;70.93;100653.13;104784;1287;22606;-79
2022/08/25 06:14:12;;;;;;;24.10;6.50;;;;;;;23.62;71.26;100650.00;104793;1286;22703;-79
2022/08/25 06:16:39;;;;;;;25.70;6.90;;;;;;;23.62;70.90;100652.88;105003;1285;22607;-76
2022/08/25 06:19:08;;;;;;;33.20;6.80;;;;;;;23.66;71.18;100653.90;104890;1286;22595;-78
2022/08/25 06:21:37;;;;;;;25.30;8.10;;;;;;;23.71;71.12;100655.23;105029;1285;25418;-77
2022/08/25 06:24:04;;;;;;;23.60;8.20;;;;;;;23.76;70.78;100652.58;104910;1285;25288;-77
2022/08/25 06:26:30;;;;;;;28.40;8.00;;;;;;;23.81;70.33;100652.48;104920;1286;25346;-79
2022/08/25 06:28:56;;;;;;;30.20;8.10;;;;;;;23.85;70.28;100653.52;104620;1286;24369;-78
2022/08/25 06:31:23;;;;;;;25.30;7.60;;;;;;;23.88;70.33;100655.48;104775;1285;22594;-78
2022/08/25 06:33:50;;;;;;;29.30;6.80;;;;;;;23.90;70.14;100657.37;104977;1285;22553;-79
2022/08/25 06:36:18;;;;;;;20.70;7.10;;;;;;;23.95;70.10;100659.75;105357;1285;22882;-78
2022/08/25 06:38:46;;;;;;;34.90;7.50;;;;;;;24.04;70.19;100658.13;105426;1286;24271;-79
2022/08/25 06:41:12;;;;;;;23.90;7.20;;;;;;;24.10;69.91;100653.39;105277;1285;23693;-78
2022/08/25 06:43:41;;;;;;;33.60;8.10;;;;;;;24.16;69.58;100653.60;104940;1286;25455;-76
2022/08/25 06:46:17;;;;;;;25.00;7.90;;;;;;;24.24;69.70;100654.56;104785;1286;27084;-78
2022/08/25 06:48:43;;;;;;;21.30;6.90;;;;;;;24.31;69.55;100653.95;104625;1285;25299;-78
2022/08/25 06:51:14;;;;;;;25.30;7.10;;;;;;;24.37;69.20;100651.41;105020;1285;22636;-76
2022/08/25 06:53:41;;;;;;;36.30;7.40;;;;;;;24.44;68.73;100656.04;104645;1286;22667;-75
2022/08/25 06:56:08;;;;;;;20.50;6.90;;;;;;;24.52;68.63;100655.02;104973;1287;25353;-77
2022/08/25 06:58:34;;;;;;;22.10;7.20;;;;;;;24.59;68.25;100659.03;104895;1286;22785;-79
2022/08/25 07:01:13;;;;;;;24.80;7.50;;;;;;;24.66;67.94;100662.19;104970;1286;22560;-78
2022/08/25 07:03:46;;;;;;;26.20;7.60;;;;;;;24.73;67.92;100662.80;105149;1285;26573;-77
2022/08/25 07:06:14;;;;;;;22.30;7.50;;;;;;;24.80;67.87;100667.27;105010;1286;22656;-86
2022/08/25 07:08:45;;;;;;;26.30;7.20;;;;;;;24.85;67.67;100668.00;103994;1286;1702936;-76
2022/08/25 07:11:13;;;;;;;33.50;7.50;;;;;;;24.91;67.34;100673.27;105193;1285;24269;-80
2022/08/25 07:13:44;;;;;;;21.90;7.50;;;;;;;24.98;67.23;100675.15;105029;1286;22581;-81
2022/08/25 07:16:10;;;;;;;25.00;7.90;;;;;;;25.04;67.03;100671.30;105165;1285;22576;-83
2022/08/25 07:18:37;;;;;;;32.60;8.10;;;;;;;25.10;66.77;100673.80;105161;1285;24312;-78
2022/08/25 07:21:03;;;;;;;28.50;7.70;;;;;;;25.17;66.65;100674.10;105084;1285;23248;-77
2022/08/25 07:23:29;;;;;;;29.50;8.70;;;;;;;25.27;66.36;100672.75;105162;1286;22546;-77
2022/08/25 07:25:55;;;;;;;26.10;6.90;;;;;;;25.32;65.48;100677.98;104915;1286;22578;-81
2022/08/25 07:28:22;;;;;;;22.60;8.00;;;;;;;25.29;65.36;100683.02;105135;1285;22590;-79
2022/08/25 07:30:51;;;;;;;29.40;7.40;;;;;;;25.37;65.43;100683.05;104446;1290;22557;-79
2022/08/25 07:33:17;;;;;;;24.60;6.80;;;;;;;25.50;65.55;100682.88;104058;1294;23033;-78
2022/08/25 07:35:44;;;;;;;24.90;7.60;;;;;;;25.62;65.18;100676.17;103902;1297;25819;-79
2022/08/25 07:38:10;;;;;;;26.30;6.50;;;;;;;25.76;64.72;100679.36;104053;1294;24412;-79
2022/08/25 07:40:39;;;;;;;32.00;7.60;;;;;;;25.88;64.49;100683.28;103930;1295;22578;-79
2022/08/25 07:43:09;;;;;;;26.20;7.40;;;;;;;26.02;64.39;100678.69;104025;1294;24576;-80
2022/08/25 07:45:38;;;;;;;28.00;7.60;;;;;;;26.15;63.93;100678.52;104075;1295;22741;-78
2022/08/25 07:48:18;;;;;;;21.20;7.10;;;;;;;26.24;63.46;100676.06;103907;1291;25299;-79
2022/08/25 07:50:46;;;;;;;18.10;6.80;;;;;;;26.37;63.34;100677.68;104586;1286;22572;-79
2022/08/25 07:53:14;;;;;;;33.70;8.00;;;;;;;26.49;63.12;100675.42;104705;1285;22767;-79
2022/08/25 07:55:41;;;;;;;24.30;6.70;;;;;;;26.58;62.37;100673.15;104866;1288;22561;-79
2022/08/25 07:58:10;;;;;;;22.50;7.30;;;;;;;26.70;62.32;100677.56;104985;1285;25281;-81
2022/08/25 08:00:40;;;;;;;18.80;6.90;;;;;;;26.84;62.14;100679.94;105239;1285;24111;-81
2022/08/25 08:03:09;;;;;;;29.60;7.20;;;;;;;26.96;61.81;100684.50;104931;1286;24271;-80
2022/08/25 08:05:49;;;;;;;17.50;6.40;;;;;;;27.08;61.34;100687.41;104527;1290;22898;-81
2022/08/25 08:08:15;;;;;;;27.60;7.40;;;;;;;27.18;60.94;100685.07;104462;1291;22598;-79
2022/08/25 08:10:44;;;;;;;24.80;6.70;;;;;;;27.25;60.47;100682.02;104508;1290;25518;-80
2022/08/25 08:13:32;;;;;;;28.80;7.60;;;;;;;27.34;60.19;100686.92;104559;1290;25545;-80
2022/08/25 08:16:00;;;;;;;36.30;7.30;;;;;;;27.43;60.10;100685.77;104527;1291;25423;-78
2022/08/25 08:18:26;;;;;;;25.90;7.80;;;;;;;27.50;59.52;100682.37;104821;1290;23849;-79
2022/08/25 08:20:52;;;;;;;22.80;6.90;;;;;;;27.56;59.60;100684.73;105544;1291;23374;-77
2022/08/25 08:23:26;;;;;;;25.50;8.10;;;;;;;27.65;59.40;100680.14;106193;1288;25509;-82
2022/08/25 08:25:52;;;;;;;22.90;6.80;;;;;;;27.71;58.58;100682.23;104964;1286;25511;-79
2022/08/25 08:28:19;;;;;;;27.90;7.40;;;;;;;27.78;58.37;100682.20;105156;1285;22582;-80
2022/08/25 08:30:45;;;;;;;26.60;7.60;;;;;;;27.84;58.05;100685.36;105350;1285;24721;-78
2022/08/25 08:33:20;;;;;;;29.10;7.10;;;;;;;27.89;57.60;100680.80;104913;1285;22578;-78
2022/08/25 08:35:46;;;;;;;22.30;6.90;;;;;;;27.97;57.35;100679.48;104994;1285;22590;-79
2022/08/25 08:38:12;;;;;;;22.70;7.40;;;;;;;28.07;57.25;100681.26;104569;1285;24337;-79
2022/08/25 08:43:55;;;;;;;24.90;6.60;;;;;;;28.23;55.88;100676.00;104938;1287;24254;-77
2022/08/25 08:46:22;;;;;;;22.30;7.20;;;;;;;28.31;55.23;100676.15;104935;1285;25384;-87
2022/08/25 08:48:56;;;;;;;24.90;6.20;;;;;;;28.41;55.56;100672.84;105154;1285;24258;-79
2022/08/25 08:51:30;;;;;;;16.00;6.00;;;;;;;28.51;55.02;100674.89;105032;1285;22559;-79
2022/08/25 08:54:13;;;;;;;26.60;7.00;;;;;;;28.61;54.57;100672.34;104841;1286;22556;-80
2022/08/25 08:56:46;;;;;;;21.90;6.30;;;;;;;28.63;53.79;100669.46;105107;1285;25312;-79
2022/08/25 08:59:25;;;;;;;27.70;6.10;;;;;;;28.70;54.13;100677.05;105177;1285;25318;-80
2022/08/25 09:02:32;;;;;;;19.20;5.70;;;;;;;28.78;53.50;100674.56;105116;1285;22662;-80
2022/08/25 09:05:18;;;;;;;18.40;6.10;;;;;;;28.90;53.04;100668.68;104972;1285;22686;-78
2022/08/25 09:07:58;;;;;;;33.00;7.20;;;;;;;29.02;52.19;100669.58;105087;1285;25280;-78
2022/08/25 09:10:32;;;;;;;22.20;5.90;;;;;;;29.16;52.09;100666.23;104818;1285;23039;-80
2022/08/25 09:13:55;;;;;;;22.30;6.20;;;;;;;29.31;51.53;100667.52;103906;1297;22683;-80
2022/08/25 09:19:43;;;;;;;21.80;6.10;;;;;;;29.53;50.75;100663.33;103555;1299;23063;-79
2022/08/25 09:22:24;;;;;;;17.40;5.70;;;;;;;29.63;50.21;100665.23;104026;1294;25396;-80
2022/08/25 09:25:20;;;;;;;20.10;6.40;;;;;;;29.71;49.82;100661.42;104051;1294;25338;-80
2022/08/25 09:28:17;;;;;;;17.70;5.70;;;;;;;29.85;49.63;100659.71;104109;1294;26945;-80
2022/08/25 09:31:05;;;;;;;22.60;6.10;;;;;;;29.97;49.13;100661.37;104065;1287;24524;-79
2022/08/25 09:33:33;;;;;;;28.50;6.00;;;;;;;30.14;48.59;100661.79;105017;1285;25415;-79
2022/08/25 09:36:02;;;;;;;26.10;6.00;;;;;;;30.27;48.04;100662.84;104977;1285;25407;-80
2022/08/25 09:38:32;;;;;;;22.10;5.80;;;;;;;30.44;47.43;100662.08;105017;1285;25471;-77
2022/08/25 09:41:00;;;;;;;15.90;5.60;;;;;;;30.59;47.83;100657.23;104888;1285;22570;-79
2022/08/25 09:43:34;;;;;;;21.20;5.60;;;;;;;30.74;46.94;100655.24;105033;1285;22581;-79
2022/08/25 09:46:14;;;;;;;16.00;5.00;;;;;;;30.85;46.32;100652.65;104888;1287;25284;-76
2022/08/25 09:48:40;;;;;;;22.60;5.30;;;;;;;31.03;45.86;100653.87;105073;1286;22576;-81
2022/08/25 09:51:32;;;;;;;13.20;4.80;;;;;;;31.19;45.51;100648.10;105280;1285;22589;-79
2022/08/25 09:54:11;;;;;;;8.40;4.20;;;;;;;31.37;44.42;100645.16;105000;1286;22586;-80
2022/08/25 09:56:49;;;;;;;16.50;4.60;;;;;;;31.52;44.12;100642.70;105346;1286;22559;-80
2022/08/25 09:59:21;;;;;;;15.30;4.70;;;;;;;31.65;43.21;100639.45;104914;1286;25445;-80
2022/08/25 10:02:05;;;;;;;13.90;4.40;;;;;;;31.83;42.69;100636.98;105149;1285;22585;-83
2022/08/25 10:04:38;;;;;;;20.30;4.70;;;;;;;32.01;42.49;100629.70;104868;1286;25396;-79
2022/08/25 10:07:34;;;;;;;16.00;4.40;;;;;;;32.16;41.24;100623.50;105003;1286;24468;-80
2022/08/25 10:10:17;;;;;;;11.90;5.10;;;;;;;32.20;40.57;100620.45;105136;1285;25570;-80
2022/08/25 10:12:46;;;;;;;13.90;5.30;;;;;;;32.29;40.64;100624.30;104945;1285;22634;-80
2022/08/25 10:15:20;;;;;;;17.20;4.90;;;;;;;32.43;40.61;100620.95;105034;1285;25351;-79
2022/08/25 10:18:23;;;;;;;19.50;6.30;;;;;;;32.63;40.76;100613.90;105065;1285;22601;-80
2022/08/25 10:21:01;;;;;;;16.60;5.30;;;;;;;32.85;40.92;100616.83;104690;1291;22576;-79
2022/08/25 10:23:28;;;;;;;15.60;5.40;;;;;;;33.05;41.22;100610.95;104277;1291;24278;-79
2022/08/25 10:26:02;;;;;;;19.20;4.90;;;;;;;33.20;41.00;100609.34;104658;1291;22716;-79
2022/08/25 10:28:38;;;;;;;13.60;5.30;;;;;;;33.32;40.47;100602.65;104631;1291;25298;-80
2022/08/25 10:31:22;;;;;;;17.30;5.10;;;;;;;33.45;40.03;100599.50;104493;1291;25265;-86
2022/08/25 10:34:02;;;;;;;18.50;5.40;;;;;;;33.63;39.76;100597.48;104630;1290;22862;-83
2022/08/25 10:36:38;;;;;;;12.60;4.60;;;;;;;33.76;39.36;100594.64;104566;1291;25284;-81
2022/08/25 10:39:18;;;;;;;17.60;5.60;;;;;;;33.86;38.85;100587.80;104933;1285;22634;-78
2022/08/25 10:42:24;;;;;;;11.90;3.80;;;;;;;34.06;37.85;100589.11;105231;1287;22576;-83
2022/08/25 10:48:31;;;;;;;11.30;3.60;;;;;;;34.42;34.49;100580.08;105025;1285;24688;-81
2022/08/25 10:51:28;;;;;;;9.70;2.80;;;;;;;34.57;32.35;100578.20;105284;1285;25283;-81
2022/08/25 10:54:16;;;;;;;8.80;2.70;;;;;;;34.67;30.96;100574.23;105370;1285;25402;-80
2022/08/25 10:56:55;;;;;;;8.30;2.50;;;;;;;34.71;29.81;100577.86;105367;1285;25335;-78
2022/08/25 10:59:42;;;;;;;6.00;2.60;;;;;;;34.67;28.91;100577.73;104885;1286;22569;-81
2022/08/25 11:02:51;;;;;;;4.60;2.10;;;;;;;34.75;28.74;100577.81;105256;1285;22672;-79
2022/08/25 11:05:35;;;;;;;4.30;2.50;;;;;;;34.88;28.66;100573.52;105351;1285;25422;-80
2022/08/25 11:08:11;;;;;;;10.20;2.60;;;;;;;35.03;28.31;100565.55;105271;1285;24358;-80
2022/08/25 11:10:48;;;;;;;7.50;2.40;;;;;;;35.12;27.85;100560.30;105280;1285;24286;-79
2022/08/25 11:13:24;;;;;;;11.30;3.00;;;;;;;35.22;27.37;100558.45;105009;1286;25282;-80
2022/08/25 11:15:55;;;;;;;;;;;;;;;35.35;27.27;100553.53;104961;1286;25267;-81
2022/08/25 11:19:05;;;;;;;7.00;2.60;;;;;;;35.47;27.22;100552.73;105312;1285;25297;-79
2022/08/25 11:22:00;;;;;;;6.20;2.40;;;;;;;35.57;26.81;100552.73;104920;1285;25551;-79
2022/08/25 11:24:40;;;;;;;5.00;2.20;;;;;;;35.71;26.67;100550.20;105247;1285;22502;-80
2022/08/25 11:27:14;;;;;;;10.10;2.70;;;;;;;35.82;26.52;100546.05;105328;1285;22532;-81
2022/08/25 11:29:55;;;;;;;6.90;2.40;;;;;;;35.89;26.04;100539.41;105370;1285;25287;-78
2022/08/25 11:32:23;;;;;;;8.00;3.40;;;;;;;35.98;26.00;100546.98;105150;1285;22857;-84
2022/08/25 11:34:51;;;;;;;10.40;3.30;;;;;;;36.07;25.94;100542.14;105079;1285;25280;-81
2022/08/25 11:37:26;;;;;;;9.80;2.80;;;;;;;36.10;25.79;100539.11;104813;1285;25396;-82
2022/08/25 11:40:12;;;;;;;9.80;2.60;;;;;;;36.04;25.59;100536.75;104799;1285;24340;-86
2022/08/25 11:43:27;;;;;;;7.40;2.70;;;;;;;36.04;24.84;100537.45;105164;1285;23105;-80
2022/08/25 11:46:13;;;;;;;;;;;;;;;35.92;24.97;100539.59;104103;1293;22546;-78
2022/08/25 11:49:06;;;;;;;7.20;2.60;;;;;;;36.01;25.32;100540.63;104199;1294;23410;-77
2022/08/25 11:51:41;;;;;;;8.90;2.70;;;;;;;36.10;24.74;100535.02;104731;1294;26613;-80